Terminal Aerodrome Forecast
Issued by NWS

Home | Current Version | Previous Version | Text Only | Print | Product List | Glossary On
Versions: 1 2 3 4 5 6 7 8 9 10 11 12 13 14 15
000
FTUS46 KPDT 230200 AAB
TAFALW
TAF AMD
KALW 230237Z 2303/2324 22010KT P6SM -SHRA SCT070 BKN100
      TEMPO 2303/2305 -TSRA BKN050CB
     FM231000 12007KT P6SM VCSH SCT050 BKN100
     FM231500 18008KT P6SM SCT100 BKN250=

USA.gov is the U.S. government's official web portal to all federal, state and local government web resources and services.